This is the latest recevied weather packets stored in our database for station/object BMCB-27. If no packets are shown the sender has not sent any weather packets the latest 10 day(s).
| Time | Temp. | Humidity | Pressure | Rain* | Wind** | Luminosity | Snow |
|---|---|---|---|---|---|---|---|
| 1777460704 | 16.67° C | 43% | 1020.9 hPa | 0 mm | - | 736 W/m² | - |
| 1777456914 | 15.56° C | 44% | 1020.9 hPa | 0 mm | - | 688 W/m² | - |
| 1777453673 | 13.33° C | 45% | 1021 hPa | 0 mm | - | 606 W/m² | - |
| 1777451005 | 12.22° C | 49% | 1021.1 hPa | 0 mm | - | 522 W/m² | - |
| 1777448599 | 11.11° C | 49% | 1021.2 hPa | 0 mm | - | 430 W/m² | - |
| 1777446996 | 10° C | 54% | 1021.1 hPa | 0 mm | - | 362 W/m² | - |
| 1777446694 | 10° C | 54% | 1021.1 hPa | 0 mm | - | 348 W/m² | - |
| 1777446183 | 9.44° C | 55% | 1021 hPa | 0 mm | - | 330 W/m² | - |
| 1777445020 | 9.44° C | 55% | 1021 hPa | 0 mm | - | 282 W/m² | - |
| 1777440055 | 7.22° C | 63% | 1020.7 hPa | 0 mm | - | 78 W/m² | - |
| 1777427649 | 8.33° C | 69% | 1019.7 hPa | 0 mm | - | 0 W/m² | - |
| 1777426533 | 8.33° C | 69% | 1019.8 hPa | 0 mm | - | 0 W/m² | - |
| 1777423910 | 8.89° C | 67% | 1019.8 hPa | 0 mm | - | 0 W/m² | - |
| 1777422408 | 9.44° C | 64% | 1019.7 hPa | 0 mm | - | 0 W/m² | - |
| 1777420617 | 9.44° C | 65% | 1019.9 hPa | 0 mm | - | 0 W/m² | - |
| 1777418459 | 10.56° C | 61% | 1019.7 hPa | 0 mm | - | 0 W/m² | - |
| 1777410741 | 13.33° C | 50% | 1018.7 hPa | 0 mm | - | 0 W/m² | - |
| 1777408921 | 13.89° C | 50% | 1018.5 hPa | 0 mm | - | 0 W/m² | - |
| 1777407686 | 14.44° C | 49% | 1018.5 hPa | 0 mm | - | 0 W/m² | - |
| 1777397381 | 17.78° C | 44% | 1016.3 hPa | 0 mm | - | 106 W/m² | - |
| 1777395973 | 18.33° C | 43% | 1016.2 hPa | 0 mm | - | 158 W/m² | - |
| 1777395251 | 18.33° C | 45% | 1016.1 hPa | 0 mm | - | 182 W/m² | - |
| 1777393811 | 18.89° C | 43% | 1016 hPa | 0 mm | - | 248 W/m² | - |
| 1777393414 | 18.33° C | 43% | 1016 hPa | 0 mm | - | 256 W/m² | - |
| 1777392879 | 18.89° C | 43% | 1016 hPa | 0 mm | - | 280 W/m² | - |
* Rain latest hour (hover to see other rain measurements)
** Current wind speed in m/s (hover to see current wind gust speed)